Time;durP1;ratioP1;P1;durP2;ratioP2;P2;SDS_P1;SDS_P2;PMS_P1;PMS_P2;Temp;Humidity;BMP_temperature;BMP_pressure;BME280_temperature;BME280_humidity;BME280_pressure;Samples;Min_cycle;Max_cycle;Signal;HPM_P1;HPM_P2
2021/10/24 00:00:33;;;;;;;39.85;22.20;;;;;;;15.49;100.00;100547.50;5044566;28;20033;-73
2021/10/24 00:02:58;;;;;;;37.38;22.33;;;;;;;15.40;100.00;100555.72;5044030;28;20101;-74
2021/10/24 00:05:24;;;;;;;32.75;20.00;;;;;;;15.43;100.00;100553.53;5043900;28;20083;-73
2021/10/24 00:07:50;;;;;;;30.17;19.85;;;;;;;15.46;100.00;100547.00;5026699;28;20021;-73
2021/10/24 00:10:15;;;;;;;32.97;19.83;;;;;;;15.33;100.00;100553.72;5043953;28;20033;-73
2021/10/24 00:12:40;;;;;;;31.23;19.38;;;;;;;15.38;99.35;100552.38;5044294;28;20270;-73
2021/10/24 00:15:07;;;;;;;34.50;19.77;;;;;;;15.29;99.88;100551.59;5044182;28;20029;-73
2021/10/24 00:17:32;;;;;;;37.95;20.05;;;;;;;15.23;100.00;100560.28;5044094;28;20263;-73
2021/10/24 00:19:57;;;;;;;29.15;18.20;;;;;;;15.22;99.70;100558.63;5044033;28;20085;-73
2021/10/24 00:22:23;;;;;;;29.33;16.00;;;;;;;15.11;98.81;100570.50;5044093;28;20097;-73
2021/10/24 00:24:48;;;;;;;27.85;15.55;;;;;;;15.09;98.92;100569.00;5043939;28;20204;-74
2021/10/24 00:27:13;;;;;;;22.70;15.80;;;;;;;15.17;97.16;100571.63;5043834;28;20094;-74
2021/10/24 00:29:39;;;;;;;23.08;14.38;;;;;;;15.05;97.22;100579.16;5043788;28;20082;-73
2021/10/24 00:32:06;;;;;;;21.27;14.15;;;;;;;15.01;96.79;100581.34;5043516;28;20105;-74
2021/10/24 00:34:32;;;;;;;22.08;13.90;;;;;;;14.80;95.95;100573.06;5043716;28;20106;-73
2021/10/24 00:36:57;;;;;;;20.75;12.43;;;;;;;14.79;95.25;100587.38;5043425;28;20056;-73
2021/10/24 00:39:23;;;;;;;20.58;12.95;;;;;;;14.62;95.45;100575.91;5043682;28;20034;-74
2021/10/24 00:41:48;;;;;;;17.08;10.93;;;;;;;14.63;95.17;100580.25;5043632;28;20105;-74
2021/10/24 00:44:22;;;;;;;17.70;10.95;;;;;;;14.59;93.80;100581.59;5043459;28;20078;-74
2021/10/24 00:46:51;;;;;;;17.45;10.65;;;;;;;14.47;93.90;100576.72;5043518;28;20311;-72
2021/10/24 00:49:17;;;;;;;15.98;10.70;;;;;;;14.55;92.52;100580.22;5043569;28;20053;-73
2021/10/24 00:51:44;;;;;;;14.57;9.55;;;;;;;14.45;92.83;100584.88;5043424;28;20052;-74
2021/10/24 00:54:11;;;;;;;12.98;8.75;;;;;;;14.49;90.77;100582.72;5042084;28;20029;-73
2021/10/24 00:56:40;;;;;;;11.98;8.20;;;;;;;14.41;89.99;100583.53;5043408;28;20196;-74
2021/10/24 00:59:08;;;;;;;11.70;7.07;;;;;;;14.30;89.12;100584.69;5043005;28;20059;-73
2021/10/24 01:01:34;;;;;;;11.15;6.75;;;;;;;14.17;89.87;100580.84;5042891;28;20100;-74
2021/10/24 01:04:01;;;;;;;8.27;6.25;;;;;;;14.15;89.54;100572.19;5042931;28;20089;-73
2021/10/24 01:06:27;;;;;;;11.23;6.80;;;;;;;14.15;88.84;100572.19;5042991;28;20060;-73
2021/10/24 01:08:53;;;;;;;9.68;6.38;;;;;;;14.17;89.46;100581.69;5043007;28;20327;-74
2021/10/24 01:11:19;;;;;;;8.70;5.07;;;;;;;14.08;87.84;100577.34;5042966;28;20096;-73
2021/10/24 01:13:45;;;;;;;7.43;5.00;;;;;;;14.15;87.42;100590.81;5043149;28;20089;-73
2021/10/24 01:16:13;;;;;;;6.55;3.97;;;;;;;14.15;87.11;100580.19;5042636;28;20067;-73
2021/10/24 01:18:38;;;;;;;8.95;5.38;;;;;;;14.19;86.83;100595.66;5043277;28;20033;-73
2021/10/24 01:21:05;;;;;;;7.78;4.68;;;;;;;14.19;87.62;100590.34;5042945;28;20303;-72
2021/10/24 01:23:30;;;;;;;8.00;4.78;;;;;;;14.23;87.34;100590.84;5042929;28;20095;-73
2021/10/24 01:25:57;;;;;;;7.82;4.35;;;;;;;14.10;87.54;100601.13;5042606;28;20033;-73
2021/10/24 01:28:22;;;;;;;4.55;3.30;;;;;;;14.01;86.50;100603.78;5042672;28;20213;-74
2021/10/24 01:30:48;;;;;;;4.75;3.15;;;;;;;13.91;87.61;100616.41;5042710;28;20051;-74
2021/10/24 01:33:14;;;;;;;4.90;2.92;;;;;;;13.89;88.04;100626.38;5042621;28;20037;-73
2021/10/24 01:35:51;;;;;;;5.03;2.88;;;;;;;13.68;89.86;100626.81;5042661;28;20033;-74
2021/10/24 01:38:17;;;;;;;6.32;2.85;;;;;;;13.65;91.01;100631.63;5041572;28;20021;-73
2021/10/24 01:40:42;;;;;;;5.32;2.88;;;;;;;13.58;90.46;100643.91;5041278;28;20052;-73
2021/10/24 01:43:07;;;;;;;2.45;2.17;;;;;;;13.41;91.39;100634.97;5042495;28;20097;-73
2021/10/24 01:45:33;;;;;;;2.67;2.20;;;;;;;13.11;93.03;100615.84;5042579;28;20075;-73
2021/10/24 01:47:59;;;;;;;4.10;2.65;;;;;;;13.36;93.92;100653.25;5041817;28;20021;-73
2021/10/24 01:50:24;;;;;;;3.05;2.30;;;;;;;13.24;93.41;100654.50;5042534;28;20033;-73
2021/10/24 01:52:50;;;;;;;5.63;2.63;;;;;;;13.28;94.20;100654.03;5042376;28;20037;-73
2021/10/24 01:55:16;;;;;;;2.72;2.17;;;;;;;13.37;93.79;100646.94;5042443;28;20022;-73
2021/10/24 01:57:47;;;;;;;5.90;2.58;;;;;;;13.32;94.52;100660.69;5042306;28;20060;-73
2021/10/24 02:00:15;;;;;;;5.13;2.50;;;;;;;13.22;94.07;100667.13;5042213;28;20029;-72
2021/10/24 02:02:40;;;;;;;4.90;2.58;;;;;;;13.29;94.96;100666.34;5042029;28;20089;-73
2021/10/24 02:05:06;;;;;;;4.50;2.53;;;;;;;13.29;95.33;100665.50;5041948;28;20044;-73
2021/10/24 02:07:32;;;;;;;3.97;2.55;;;;;;;13.16;94.05;100671.22;5042268;28;20033;-73
2021/10/24 02:09:57;;;;;;;4.07;2.70;;;;;;;12.98;94.33;100667.75;5042058;28;20033;-73
2021/10/24 02:12:23;;;;;;;4.60;2.25;;;;;;;12.96;95.03;100678.53;5042176;28;20040;-73
2021/10/24 02:14:48;;;;;;;4.57;2.60;;;;;;;12.99;94.81;100680.91;5042063;28;20030;-73
2021/10/24 02:17:14;;;;;;;3.90;2.40;;;;;;;13.06;93.99;100676.63;5042171;28;20204;-73
2021/10/24 02:19:40;;;;;;;4.43;2.53;;;;;;;13.03;95.14;100684.09;5042071;28;20076;-73
2021/10/24 02:22:05;;;;;;;4.20;2.40;;;;;;;13.01;94.67;100691.38;5042217;28;20036;-73
2021/10/24 02:24:32;;;;;;;6.50;2.60;;;;;;;12.85;95.21;100683.28;5042022;28;20026;-73
2021/10/24 02:26:57;;;;;;;3.38;2.60;;;;;;;12.59;97.93;100672.59;5041892;28;20033;-73
2021/10/24 02:29:23;;;;;;;4.80;2.42;;;;;;;12.45;97.83;100681.91;5041747;28;20068;-73
2021/10/24 02:31:48;;;;;;;10.88;2.72;;;;;;;12.42;98.89;100675.06;5041755;28;20034;-73
2021/10/24 02:34:14;;;;;;;10.18;3.40;;;;;;;12.55;98.11;100679.19;5040718;28;20025;-73
2021/10/24 02:36:39;;;;;;;4.88;2.80;;;;;;;12.56;97.44;100692.31;5041975;28;20093;-73
2021/10/24 02:39:05;;;;;;;5.10;2.58;;;;;;;12.55;96.94;100679.19;5041765;28;20033;-73
2021/10/24 02:41:30;;;;;;;4.72;2.58;;;;;;;12.68;96.82;100680.47;5042343;28;20070;-73
2021/10/24 02:43:55;;;;;;;4.25;2.67;;;;;;;12.71;95.88;100676.69;5041701;28;20025;-72
2021/10/24 02:46:21;;;;;;;5.15;3.10;;;;;;;12.75;95.96;100672.72;5041788;28;20235;-72
2021/10/24 02:48:46;;;;;;;3.85;2.40;;;;;;;12.89;94.11;100674.84;5041853;28;20033;-73
2021/10/24 02:51:12;;;;;;;3.92;2.45;;;;;;;12.90;93.75;100691.63;5041683;28;20043;-73
2021/10/24 02:53:37;;;;;;;3.47;2.10;;;;;;;12.85;93.14;100680.63;5041825;28;20037;-74
2021/10/24 02:56:03;;;;;;;2.97;1.90;;;;;;;12.91;92.77;100695.94;5040443;28;20021;-73
2021/10/24 02:58:28;;;;;;;3.65;1.77;;;;;;;12.97;91.58;100687.34;5041553;28;20049;-73
2021/10/24 03:00:54;;;;;;;2.50;2.05;;;;;;;12.84;91.76;100700.22;5044984;28;20037;-73
2021/10/24 03:03:19;;;;;;;4.30;2.08;;;;;;;12.87;92.09;100698.09;5045484;28;20033;-74
2021/10/24 03:05:45;;;;;;;2.10;1.90;;;;;;;12.90;90.56;100699.59;5045110;28;20108;-73
2021/10/24 03:08:10;;;;;;;3.83;1.80;;;;;;;12.99;89.70;100699.50;5045462;28;20093;-73
2021/10/24 03:10:36;;;;;;;2.58;2.33;;;;;;;13.08;89.75;100703.06;5045080;28;20033;-73
2021/10/24 03:13:04;;;;;;;2.80;1.73;;;;;;;13.11;88.54;100700.94;5044119;28;20053;-73
2021/10/24 03:15:29;;;;;;;3.72;2.17;;;;;;;13.02;88.90;100701.84;5045362;28;20067;-74
2021/10/24 03:17:55;;;;;;;3.42;1.70;;;;;;;13.13;87.08;100706.09;5045283;28;20034;-73
2021/10/24 03:20:20;;;;;;;4.70;1.60;;;;;;;12.95;87.79;100702.63;5043871;28;20100;-72
2021/10/24 03:22:46;;;;;;;5.50;1.67;;;;;;;12.83;87.27;100706.50;5045272;28;20096;-72
2021/10/24 03:25:11;;;;;;;2.72;1.70;;;;;;;12.87;86.84;100707.88;5045194;28;20097;-73
2021/10/24 03:27:37;;;;;;;2.22;1.70;;;;;;;12.47;86.41;100656.00;5045011;28;20085;-73
2021/10/24 03:30:02;;;;;;;1.52;1.42;;;;;;;12.79;86.49;100709.47;5044841;28;20256;-74
2021/10/24 03:32:28;;;;;;;1.88;1.65;;;;;;;12.85;86.15;100699.22;5044829;28;20026;-73
2021/10/24 03:34:53;;;;;;;3.72;1.83;;;;;;;12.90;85.16;100710.22;5043477;28;20223;-73
2021/10/24 03:37:19;;;;;;;2.97;1.85;;;;;;;12.84;85.05;100714.34;5044973;28;20025;-74
2021/10/24 03:39:45;;;;;;;3.42;1.58;;;;;;;12.75;84.19;100709.94;5044848;28;20021;-73
2021/10/24 03:42:10;;;;;;;2.78;1.88;;;;;;;12.86;82.64;100728.31;5044834;28;20278;-73
2021/10/24 03:44:36;;;;;;;3.35;2.03;;;;;;;12.76;82.55;100732.88;5044582;28;20034;-73
2021/10/24 03:47:02;;;;;;;2.50;1.70;;;;;;;12.71;82.61;100735.16;5044720;28;20056;-73
2021/10/24 03:49:27;;;;;;;2.38;1.92;;;;;;;12.58;83.22;100735.53;5044532;28;20033;-73
2021/10/24 03:51:52;;;;;;;5.05;2.50;;;;;;;12.72;83.65;100742.97;5044908;28;20079;-73
2021/10/24 03:54:18;;;;;;;2.63;2.10;;;;;;;12.72;82.63;100735.00;5044389;28;20088;-73
2021/10/24 03:56:43;;;;;;;4.07;2.33;;;;;;;12.63;82.23;100737.72;5044420;28;20374;-72
2021/10/24 03:59:09;;;;;;;3.28;2.20;;;;;;;12.64;82.00;100742.88;5043033;28;20108;-72
2021/10/24 04:01:34;;;;;;;7.13;2.40;;;;;;;12.63;81.98;100735.06;5044154;28;20096;-73
2021/10/24 04:04:00;;;;;;;4.45;3.08;;;;;;;12.61;81.94;100739.69;5044365;28;20259;-73
2021/10/24 04:06:25;;;;;;;4.57;2.20;;;;;;;12.52;82.16;100746.75;5044246;28;20045;-73
2021/10/24 04:08:50;;;;;;;3.50;2.25;;;;;;;12.48;81.50;100737.38;5043144;28;20021;-73
2021/10/24 04:11:16;;;;;;;3.13;2.50;;;;;;;12.57;81.13;100743.63;5043457;28;20025;-74
2021/10/24 04:13:42;;;;;;;4.00;2.03;;;;;;;12.53;81.61;100750.25;5044267;28;20029;-73
2021/10/24 04:16:07;;;;;;;4.60;2.40;;;;;;;12.45;81.23;100753.63;5042969;28;20025;-73
2021/10/24 04:18:33;;;;;;;5.03;2.42;;;;;;;12.50;81.32;100755.84;5044158;28;20037;-74
2021/10/24 04:20:58;;;;;;;3.13;2.20;;;;;;;12.55;81.23;100762.38;5044091;28;20041;-73
2021/10/24 04:23:23;;;;;;;3.13;2.00;;;;;;;12.57;80.19;100754.28;5044148;28;20378;-73
2021/10/24 04:25:49;;;;;;;2.45;2.00;;;;;;;12.65;80.30;100759.66;5043728;28;20033;-72
2021/10/24 04:28:16;;;;;;;2.85;1.77;;;;;;;12.60;80.06;100761.94;5043865;28;20097;-73
2021/10/24 04:30:42;;;;;;;4.38;2.10;;;;;;;12.61;79.81;100761.78;5043998;28;20029;-73
2021/10/24 04:33:07;;;;;;;3.75;2.08;;;;;;;12.64;79.87;100769.47;5042472;28;20025;-73
2021/10/24 04:35:33;;;;;;;2.53;1.90;;;;;;;12.67;79.24;100771.81;5043602;28;20025;-73
2021/10/24 04:37:58;;;;;;;2.78;2.20;;;;;;;12.57;78.90;100771.03;5043871;28;20032;-73
2021/10/24 04:40:24;;;;;;;4.47;2.15;;;;;;;12.57;77.47;100763.06;5043781;28;20093;-72
2021/10/24 04:42:49;;;;;;;5.50;2.65;;;;;;;12.60;76.45;100770.75;5043618;28;20349;-72
2021/10/24 04:45:15;;;;;;;3.38;2.20;;;;;;;12.54;77.20;100775.81;5043536;28;20403;-74
2021/10/24 04:47:40;;;;;;;5.22;2.17;;;;;;;12.42;76.11;100764.53;5043657;28;20029;-73
2021/10/24 04:50:08;;;;;;;4.60;2.30;;;;;;;12.37;75.77;100774.78;5043229;28;20079;-74
2021/10/24 04:52:36;;;;;;;6.35;2.47;;;;;;;12.35;75.95;100772.25;5043544;28;20030;-73
2021/10/24 04:55:01;;;;;;;3.95;2.50;;;;;;;12.43;75.79;100774.19;5043141;28;20322;-73
2021/10/24 04:57:27;;;;;;;9.82;2.80;;;;;;;12.39;76.37;100773.63;5043364;28;20036;-73
2021/10/24 04:59:52;;;;;;;3.75;2.20;;;;;;;12.40;76.21;100782.44;5043212;28;20373;-73
2021/10/24 05:02:18;;;;;;;4.07;2.60;;;;;;;12.36;75.91;100779.25;5042002;28;20021;-73
2021/10/24 05:04:43;;;;;;;2.50;1.80;;;;;;;12.43;76.87;100785.63;5042848;28;20076;-73
2021/10/24 05:07:09;;;;;;;4.28;2.40;;;;;;;12.31;78.06;100799.28;5061254;28;20028;-73
2021/10/24 05:09:34;;;;;;;3.65;2.33;;;;;;;12.43;77.90;100795.44;5061977;28;20038;-73
2021/10/24 05:12:00;;;;;;;4.22;2.38;;;;;;;12.49;76.50;100792.22;5062068;28;20092;-73
2021/10/24 05:14:25;;;;;;;6.30;3.17;;;;;;;12.54;75.69;100805.88;5061822;28;20047;-73
2021/10/24 05:16:51;;;;;;;8.80;3.88;;;;;;;12.35;76.52;100804.13;5044198;28;20032;-72
2021/10/24 05:19:16;;;;;;;11.07;3.45;;;;;;;12.37;76.49;100814.63;5061935;28;20025;-72
2021/10/24 05:21:42;;;;;;;10.23;3.70;;;;;;;12.42;74.87;100828.28;5044166;28;20092;-73
2021/10/24 05:24:07;;;;;;;4.28;3.20;;;;;;;12.40;75.44;100830.25;5060825;28;20131;-73
2021/10/24 05:26:33;;;;;;;5.10;2.60;;;;;;;12.51;73.79;100824.78;5061619;28;20029;-73
2021/10/24 05:28:58;;;;;;;4.10;3.08;;;;;;;12.48;73.51;100843.63;5043808;28;20032;-73
2021/10/24 05:31:23;;;;;;;5.68;3.00;;;;;;;12.51;73.44;100850.50;5043607;28;20101;-73
2021/10/24 05:33:49;;;;;;;4.22;2.78;;;;;;;12.35;74.40;100854.59;5043831;28;20021;-73
2021/10/24 05:36:14;;;;;;;5.18;3.08;;;;;;;12.52;73.46;100855.66;5061717;28;20112;-73
2021/10/24 05:38:40;;;;;;;6.78;2.90;;;;;;;12.44;72.84;100856.38;5061736;28;20033;-73
2021/10/24 05:41:06;;;;;;;4.13;2.47;;;;;;;12.44;72.36;100848.41;5061387;28;20033;-73
2021/10/24 05:43:31;;;;;;;4.60;2.35;;;;;;;12.34;72.40;100865.38;5044055;28;20356;-73
2021/10/24 05:45:56;;;;;;;4.65;2.65;;;;;;;12.37;71.70;100862.41;5061596;28;20401;-73
2021/10/24 05:48:22;;;;;;;4.55;2.70;;;;;;;12.43;71.44;100875.94;5061586;28;20096;-73
2021/10/24 05:50:48;;;;;;;7.13;3.67;;;;;;;12.36;71.29;100852.78;5061412;28;20370;-72
2021/10/24 05:53:13;;;;;;;8.50;3.10;;;;;;;12.49;70.19;100890.50;5061432;28;20168;-72
2021/10/24 05:55:39;;;;;;;8.57;4.68;;;;;;;12.48;70.56;100888.78;5061133;28;20033;-72
2021/10/24 05:58:04;;;;;;;4.72;3.08;;;;;;;12.50;70.81;100900.16;5061212;28;20055;-73
2021/10/24 06:00:32;;;;;;;6.63;2.65;;;;;;;12.61;70.19;100896.47;5061299;28;20094;-74
2021/10/24 06:03:03;;;;;;;8.27;2.85;;;;;;;12.58;70.14;100907.38;5061038;28;20382;-73
2021/10/24 06:05:28;;;;;;;4.93;2.70;;;;;;;12.65;69.40;100905.81;5060862;28;20060;-73
2021/10/24 06:07:54;;;;;;;3.30;2.45;;;;;;;12.68;68.72;100909.00;5061291;28;20100;-73
2021/10/24 06:10:22;;;;;;;5.75;3.50;;;;;;;12.71;68.74;100915.84;5061198;28;20071;-73
2021/10/24 06:12:53;;;;;;;5.55;3.45;;;;;;;12.68;68.75;100910.84;5061148;28;20033;-73
2021/10/24 06:15:21;;;;;;;7.10;2.63;;;;;;;12.72;68.98;100920.19;5061204;28;20234;-72
2021/10/24 06:17:48;;;;;;;5.40;2.47;;;;;;;12.80;69.33;100922.94;5043463;28;20035;-72
2021/10/24 06:20:15;;;;;;;7.75;2.67;;;;;;;12.75;69.65;100930.53;5060784;28;20028;-73
2021/10/24 06:22:41;;;;;;;5.53;3.13;;;;;;;12.74;71.84;100921.72;5061101;28;20036;-73
2021/10/24 06:25:08;;;;;;;7.00;3.80;;;;;;;12.78;71.70;100930.22;5060825;28;20029;-73
2021/10/24 06:27:38;;;;;;;5.13;3.05;;;;;;;12.57;72.37;100935.78;5060874;28;20033;-73
2021/10/24 06:30:06;;;;;;;5.95;3.92;;;;;;;12.78;73.77;100952.31;5060737;28;20064;-73
2021/10/24 06:32:32;;;;;;;8.57;4.40;;;;;;;12.75;73.91;100962.41;5060769;28;20024;-74
2021/10/24 06:34:57;;;;;;;8.80;5.60;;;;;;;12.74;72.97;100960.75;5062767;28;20294;-73
2021/10/24 06:37:23;;;;;;;5.18;3.35;;;;;;;12.65;73.06;100956.31;5065003;28;20107;-73
2021/10/24 06:39:48;;;;;;;5.55;3.65;;;;;;;12.85;72.40;100957.88;5064902;28;20317;-73
2021/10/24 06:42:14;;;;;;;5.03;3.40;;;;;;;12.74;72.69;100948.28;5064918;28;20104;-72
2021/10/24 06:44:40;;;;;;;4.78;3.35;;;;;;;12.86;71.91;100972.84;5064690;28;20084;-72
2021/10/24 06:47:05;;;;;;;5.55;3.47;;;;;;;12.93;70.88;100965.13;5064840;28;20051;-73
2021/10/24 06:49:31;;;;;;;7.10;4.75;;;;;;;12.88;70.83;100968.22;5064674;28;20341;-73
2021/10/24 06:51:58;;;;;;;8.88;4.70;;;;;;;12.99;71.32;100970.69;5064779;28;20035;-73
2021/10/24 06:54:24;;;;;;;7.40;4.45;;;;;;;13.06;70.37;100985.06;5064657;28;20029;-73
2021/10/24 06:56:49;;;;;;;10.43;4.78;;;;;;;13.12;69.56;100975.66;5064460;28;20294;-73
2021/10/24 06:59:15;;;;;;;7.28;4.82;;;;;;;13.22;70.23;100983.63;5064636;28;20044;-74
2021/10/24 07:01:40;;;;;;;9.80;5.40;;;;;;;13.37;68.53;100987.44;5064288;28;20402;-73
2021/10/24 07:04:10;;;;;;;12.75;7.40;;;;;;;13.41;67.96;100981.66;5064099;28;20084;-73
2021/10/24 07:06:36;;;;;;;8.75;6.03;;;;;;;13.38;66.84;100986.47;5064438;28;20196;-73
2021/10/24 07:09:01;;;;;;;5.78;3.90;;;;;;;13.56;66.50;100986.50;5046294;28;20031;-73
2021/10/24 07:11:27;;;;;;;6.30;4.13;;;;;;;13.94;65.69;100991.53;5064317;28;20059;-73
2021/10/24 07:13:52;;;;;;;8.23;4.55;;;;;;;14.17;64.41;100991.88;5064221;28;20278;-73
2021/10/24 07:16:17;;;;;;;8.20;5.22;;;;;;;14.10;64.48;100987.31;5064124;28;20037;-73
2021/10/24 07:18:43;;;;;;;7.97;5.43;;;;;;;14.25;63.96;100991.94;5064262;28;20041;-74
2021/10/24 07:21:08;;;;;;;11.02;6.15;;;;;;;14.60;63.78;100995.56;5064170;28;20044;-73
2021/10/24 07:23:34;;;;;;;10.45;6.30;;;;;;;14.89;62.68;100992.53;5064259;28;20036;-72
2021/10/24 07:25:59;;;;;;;7.97;5.03;;;;;;;14.67;62.44;100993.94;5064080;28;20056;-73
2021/10/24 07:28:24;;;;;;;7.47;4.63;;;;;;;14.53;62.05;101000.66;5064005;28;20245;-73
2021/10/24 07:30:50;;;;;;;6.95;4.68;;;;;;;14.37;60.71;101005.84;5063819;28;20088;-73
2021/10/24 07:33:15;;;;;;;7.40;4.70;;;;;;;14.24;60.72;101005.41;5063866;28;20041;-74
2021/10/24 07:35:41;;;;;;;10.02;4.68;;;;;;;14.28;61.48;101009.44;5045847;28;20037;-74
2021/10/24 07:38:12;;;;;;;6.40;4.10;;;;;;;14.46;61.98;101015.59;5064045;28;20041;-74
2021/10/24 07:40:37;;;;;;;10.35;4.13;;;;;;;14.44;61.09;101012.25;5063995;28;20037;-74
2021/10/24 07:43:03;;;;;;;6.03;4.47;;;;;;;14.57;60.52;101010.03;5063798;28;20047;-73
2021/10/24 07:45:28;;;;;;;8.10;4.45;;;;;;;14.77;59.97;101017.81;5061980;28;20094;-73
2021/10/24 07:47:54;;;;;;;9.15;4.72;;;;;;;14.74;60.82;101018.13;5063209;28;20037;-74
2021/10/24 07:50:19;;;;;;;6.28;4.22;;;;;;;15.21;59.97;101013.19;5063461;28;20033;-73
2021/10/24 07:52:46;;;;;;;6.53;4.22;;;;;;;15.84;58.18;101015.41;5063691;28;20322;-73
2021/10/24 07:55:12;;;;;;;6.47;4.13;;;;;;;16.35;56.91;101014.22;5063689;28;20203;-74
2021/10/24 07:57:37;;;;;;;6.90;4.07;;;;;;;16.65;54.85;101020.75;5063371;28;20037;-73
2021/10/24 08:00:05;;;;;;;6.97;3.70;;;;;;;16.54;53.44;101018.38;5045507;28;20029;-74
2021/10/24 08:02:32;;;;;;;6.47;3.83;;;;;;;16.44;53.06;101021.22;5063166;28;20094;-73
2021/10/24 08:04:57;;;;;;;5.93;3.92;;;;;;;16.15;52.86;101011.06;5063134;28;20029;-73
2021/10/24 08:07:23;;;;;;;12.15;4.03;;;;;;;16.66;53.54;101013.56;5063423;28;20095;-74
2021/10/24 08:09:48;;;;;;;7.95;3.70;;;;;;;16.52;50.81;101020.38;5062985;28;20040;-73
2021/10/24 08:12:14;;;;;;;7.78;4.60;;;;;;;16.41;51.27;101020.75;5063214;28;20033;-73
2021/10/24 08:14:39;;;;;;;6.18;4.20;;;;;;;16.40;51.28;101021.75;5063241;28;20096;-73
2021/10/24 08:17:05;;;;;;;5.80;3.63;;;;;;;16.36;51.01;101026.59;5063438;28;20103;-73
2021/10/24 08:19:32;;;;;;;5.82;3.45;;;;;;;16.63;50.98;101035.25;5063078;28;20039;-73
2021/10/24 08:21:57;;;;;;;6.97;3.53;;;;;;;17.01;51.91;101039.06;5063003;28;20100;-72
2021/10/24 08:24:23;;;;;;;5.93;3.75;;;;;;;17.31;50.07;101045.47;5062958;28;20032;-73
2021/10/24 08:26:50;;;;;;;3.63;2.78;;;;;;;17.25;48.27;101033.59;5044919;28;20020;-73
2021/10/24 08:29:16;;;;;;;6.07;3.03;;;;;;;17.08;48.49;101040.03;5062751;28;21151;-74
2021/10/24 08:31:48;;;;;;;6.15;3.63;;;;;;;17.14;49.95;101050.88;5062590;28;20092;-73
2021/10/24 08:34:13;;;;;;;6.55;3.85;;;;;;;17.31;48.50;101046.28;5044911;28;20254;-73
2021/10/24 08:36:39;;;;;;;7.88;3.70;;;;;;;17.40;47.39;101047.94;5062760;28;20029;-73
2021/10/24 08:39:04;;;;;;;5.95;3.30;;;;;;;17.31;46.56;101054.31;5062721;28;20231;-73
2021/10/24 08:41:30;;;;;;;4.60;2.95;;;;;;;17.43;46.87;101057.47;5062777;28;20033;-74
2021/10/24 08:43:57;;;;;;;5.30;3.33;;;;;;;17.62;46.95;101057.03;5062605;28;20059;-73
2021/10/24 08:46:23;;;;;;;8.10;4.15;;;;;;;17.81;47.44;101056.63;5062563;28;20383;-74
2021/10/24 08:48:49;;;;;;;6.65;3.53;;;;;;;17.75;47.07;101054.66;5062433;28;20048;-74
2021/10/24 08:51:16;;;;;;;4.03;3.00;;;;;;;17.76;45.84;101055.50;5062479;28;20032;-73
2021/10/24 08:53:46;;;;;;;3.75;2.60;;;;;;;17.75;45.77;101062.69;5062476;28;20032;-73
2021/10/24 08:56:15;;;;;;;3.83;2.90;;;;;;;18.00;46.32;101066.06;5061961;28;20032;-73
2021/10/24 08:58:41;;;;;;;4.93;2.83;;;;;;;18.01;44.58;101053.47;5062074;28;20045;-74
2021/10/24 09:01:06;;;;;;;6.60;3.13;;;;;;;18.06;45.13;101059.97;5062119;28;20087;-74
2021/10/24 09:03:32;;;;;;;8.60;6.43;;;;;;;18.17;45.71;101056.03;5062173;28;20406;-73
2021/10/24 09:05:57;;;;;;;8.48;3.83;;;;;;;18.37;44.86;101053.69;5061733;28;20090;-73
2021/10/24 09:08:24;;;;;;;4.82;2.70;;;;;;;17.59;44.53;101056.53;5062282;28;20045;-73
2021/10/24 09:10:52;;;;;;;4.95;2.95;;;;;;;17.34;44.85;101062.00;5062146;28;20031;-73
2021/10/24 09:13:37;;;;;;;7.03;3.50;;;;;;;17.55;46.11;101064.91;5062071;28;20078;-73
2021/10/24 09:16:05;;;;;;;5.95;2.92;;;;;;;17.45;46.92;101058.94;5061868;28;20048;-73
2021/10/24 09:18:39;;;;;;;9.13;3.92;;;;;;;17.31;46.22;101070.38;5062057;28;20033;-73
2021/10/24 09:21:17;;;;;;;;;;;;;;;17.58;46.67;101068.25;5062163;28;20193;-73
2021/10/24 09:23:52;;;;;;;5.82;3.17;;;;;;;17.74;45.58;101060.19;5061969;28;19912;-73
2021/10/24 09:26:22;;;;;;;;;;;;;;;17.89;46.50;101069.16;5062412;28;20040;-74
2021/10/24 09:29:07;;;;;;;6.63;3.10;;;;;;;17.93;46.31;101073.13;5061766;28;19988;-74
2021/10/24 09:31:35;;;;;;;8.23;5.82;;;;;;;17.70;43.16;101070.44;5061533;28;20041;-73
2021/10/24 09:34:23;;;;;;;6.07;2.80;;;;;;;17.80;44.16;101072.88;5061502;28;20147;-73
2021/10/24 09:36:59;;;;;;;6.20;3.42;;;;;;;17.76;44.51;101077.75;5061689;28;20024;-73
2021/10/24 09:39:37;;;;;;;4.85;2.75;;;;;;;17.93;42.28;101073.13;5061476;28;20037;-73
2021/10/24 09:42:17;;;;;;;5.68;2.75;;;;;;;17.83;42.64;101072.53;5061640;28;20020;-73
2021/10/24 09:45:04;;;;;;;3.60;2.50;;;;;;;17.71;42.66;101079.31;5061362;28;20031;-73
2021/10/24 09:47:37;;;;;;;5.45;2.50;;;;;;;17.30;42.26;101082.09;5061566;28;20025;-73
2021/10/24 09:50:04;;;;;;;5.53;2.38;;;;;;;17.08;43.81;101072.16;5061427;28;20028;-74
2021/10/24 09:52:31;;;;;;;7.18;2.75;;;;;;;16.91;45.63;101074.03;5043624;28;20393;-73
2021/10/24 09:54:58;;;;;;;2.78;1.92;;;;;;;17.07;43.42;101079.34;5061233;28;20257;-73
2021/10/24 09:57:23;;;;;;;3.70;2.17;;;;;;;16.88;44.07;101082.41;5061690;28;20020;-73
2021/10/24 09:59:53;;;;;;;5.15;2.63;;;;;;;16.21;45.50;101071.03;5061237;28;20255;-73
2021/10/24 10:02:19;;;;;;;4.45;2.65;;;;;;;16.18;44.82;101080.22;5061032;28;20033;-73
2021/10/24 10:04:45;;;;;;;5.70;2.70;;;;;;;16.24;46.92;101078.72;5061094;28;20266;-73
2021/10/24 10:07:13;;;;;;;5.53;2.15;;;;;;;16.13;44.79;101087.06;5061187;28;20052;-73
2021/10/24 10:09:41;;;;;;;6.40;2.70;;;;;;;16.21;44.90;101084.38;5060323;28;20025;-74
2021/10/24 10:12:07;;;;;;;7.95;3.22;;;;;;;16.24;44.31;101089.41;5061167;28;20342;-73
2021/10/24 10:14:36;;;;;;;5.07;2.83;;;;;;;16.33;45.92;101096.44;5061195;28;20326;-73
2021/10/24 10:17:11;;;;;;;3.90;2.72;;;;;;;16.25;47.20;101093.75;5061155;28;20025;-74
2021/10/24 10:19:39;;;;;;;5.50;2.80;;;;;;;16.18;46.51;101093.56;5060928;28;20033;-74
2021/10/24 10:22:25;;;;;;;5.25;3.30;;;;;;;16.24;46.01;101084.06;5061160;28;20037;-73
2021/10/24 10:25:11;;;;;;;4.75;2.17;;;;;;;16.51;45.69;101090.91;5061100;28;20263;-74
2021/10/24 10:27:39;;;;;;;5.80;2.70;;;;;;;16.08;46.57;101089.38;5060588;28;20041;-74
2021/10/24 10:30:11;;;;;;;3.85;2.42;;;;;;;15.97;48.89;101098.56;5060898;28;20032;-73
2021/10/24 10:32:48;;;;;;;11.32;2.60;;;;;;;15.78;52.52;101090.84;5060889;28;20033;-73
2021/10/24 10:35:21;;;;;;;3.10;2.35;;;;;;;15.53;54.79;101100.53;5060763;28;20041;-73
2021/10/24 10:38:07;;;;;;;3.22;2.58;;;;;;;15.62;55.65;101099.63;5061283;28;20453;-73
2021/10/24 10:40:41;;;;;;;3.45;2.30;;;;;;;15.56;56.72;101113.56;5060252;28;20040;-73
2021/10/24 10:43:22;;;;;;;4.93;2.55;;;;;;;15.00;57.75;101067.78;5061055;28;20055;-73
2021/10/24 10:45:52;;;;;;;6.88;2.72;;;;;;;15.00;58.32;101114.94;5042903;28;20092;-72
2021/10/24 10:48:28;;;;;;;3.10;2.05;;;;;;;14.90;59.75;101114.22;5060916;28;20033;-73
2021/10/24 10:51:16;;;;;;;2.47;1.60;;;;;;;14.81;59.36;101110.66;5060533;28;20040;-73
2021/10/24 10:53:44;;;;;;;5.35;2.10;;;;;;;14.78;60.50;101115.47;5060918;28;20048;-73
2021/10/24 10:56:14;;;;;;;5.75;1.85;;;;;;;14.81;58.82;101116.00;5060789;28;20148;-73
2021/10/24 10:58:45;;;;;;;2.95;1.92;;;;;;;14.92;59.49;101109.56;5060759;28;20207;-74
2021/10/24 11:01:28;;;;;;;5.22;1.90;;;;;;;15.05;58.59;101109.16;5042520;28;20226;-73
2021/10/24 11:03:56;;;;;;;3.83;1.95;;;;;;;15.08;59.07;101114.16;5060168;28;20281;-73
2021/10/24 11:06:25;;;;;;;5.75;2.10;;;;;;;15.21;57.61;101118.06;5060457;28;20025;-73
2021/10/24 11:08:58;;;;;;;5.50;2.33;;;;;;;15.10;57.30;101113.00;5060804;28;20238;-73
2021/10/24 11:14:18;;;;;;;3.90;2.42;;;;;;;15.08;57.46;101112.34;5061076;28;20151;-73
2021/10/24 11:16:55;;;;;;;6.53;2.80;;;;;;;15.25;56.11;101119.44;5043894;28;20060;-73
2021/10/24 11:19:27;;;;;;;3.95;2.63;;;;;;;15.39;56.07;101115.31;5061524;28;20237;-73
2021/10/24 11:22:15;;;;;;;6.97;3.08;;;;;;;15.54;55.68;101107.56;5064654;28;20075;-74
2021/10/24 11:25:00;;;;;;;6.47;3.00;;;;;;;15.52;57.69;101109.53;5065146;28;20041;-72
2021/10/24 11:27:26;;;;;;;4.25;2.90;;;;;;;15.49;57.21;101108.03;5065043;28;20032;-72